createdAt,value
2022-08-05T00:01:30.304Z,9.25
2022-08-05T00:04:03.690Z,17.67
2022-08-05T00:06:33.259Z,8.70
2022-08-05T00:09:03.277Z,9.23
2022-08-05T00:11:35.213Z,11.13
2022-08-05T00:14:17.549Z,10.13
2022-08-05T00:16:52.661Z,9.57
2022-08-05T00:19:24.858Z,10.07
2022-08-05T00:21:52.030Z,9.18
2022-08-05T00:24:24.789Z,8.35
2022-08-05T00:26:57.177Z,6.60
2022-08-05T00:29:26.066Z,9.90
2022-08-05T00:32:12.984Z,13.23
2022-08-05T00:35:05.558Z,9.68
2022-08-05T00:37:50.528Z,7.80
2022-08-05T00:40:26.706Z,8.60
2022-08-05T00:42:56.740Z,7.28
2022-08-05T00:45:28.143Z,7.97
2022-08-05T00:48:05.636Z,8.25
2022-08-05T00:50:32.577Z,8.73
2022-08-05T00:52:59.093Z,6.78
2022-08-05T00:55:34.137Z,7.15
2022-08-05T00:58:13.891Z,6.13
2022-08-05T01:00:42.268Z,9.05
2022-08-05T01:03:10.582Z,9.68
2022-08-05T01:05:48.843Z,11.23
2022-08-05T01:08:41.548Z,8.07
2022-08-05T01:11:33.481Z,7.00
2022-08-05T01:14:03.990Z,8.02
2022-08-05T01:16:47.963Z,9.73
2022-08-05T01:19:56.621Z,8.13
2022-08-05T01:22:24.367Z,11.02
2022-08-05T01:25:01.677Z,10.45
2022-08-05T01:27:50.666Z,7.80
2022-08-05T01:30:34.502Z,8.80
2022-08-05T01:33:06.264Z,8.35
2022-08-05T01:35:51.832Z,8.15
2022-08-05T01:38:27.207Z,8.27
2022-08-05T01:40:59.688Z,10.63
2022-08-05T01:43:28.287Z,7.15
2022-08-05T01:45:56.465Z,9.05
2022-08-05T01:48:28.505Z,9.00
2022-08-05T01:50:57.114Z,8.80
2022-08-05T01:53:56.960Z,8.73
2022-08-05T01:58:11.255Z,8.95
2022-08-05T01:59:09.166Z,10.25
2022-08-05T02:01:39.993Z,10.48
2022-08-05T02:04:10.320Z,10.02
2022-08-05T02:06:38.914Z,10.20
2022-08-05T02:09:07.290Z,8.05
2022-08-05T02:11:52.280Z,8.15
2022-08-05T02:14:32.016Z,10.85
2022-08-05T02:17:08.968Z,6.63
2022-08-05T02:20:01.697Z,8.20
2022-08-05T02:22:41.922Z,8.15
2022-08-05T02:25:15.598Z,12.80
2022-08-05T02:27:59.671Z,9.77
2022-08-05T02:30:54.411Z,9.00
2022-08-05T02:33:24.681Z,9.60
2022-08-05T02:36:14.596Z,7.65
2022-08-05T02:38:53.098Z,7.97
2022-08-05T02:41:22.989Z,9.85
2022-08-05T02:44:02.429Z,11.88
2022-08-05T02:46:53.231Z,14.27
2022-08-05T02:49:37.108Z,19.48
2022-08-05T02:52:08.827Z,13.73
2022-08-05T02:54:41.474Z,15.63
2022-08-05T02:58:12.161Z,17.77
2022-08-05T02:59:59.409Z,12.48
2022-08-05T03:02:33.837Z,13.13
2022-08-05T03:05:01.867Z,11.45
2022-08-05T03:08:00.409Z,10.40
2022-08-05T03:10:21.850Z,10.75
2022-08-05T03:12:52.506Z,8.63
2022-08-05T03:15:20.291Z,15.10
2022-08-05T03:17:46.729Z,10.90
2022-08-05T03:20:13.888Z,16.13
2022-08-05T03:22:44.073Z,13.07
2022-08-05T03:25:32.906Z,11.73
2022-08-05T03:28:07.009Z,13.73
2022-08-05T03:30:38.279Z,10.25
2022-08-05T03:33:08.084Z,18.08
2022-08-05T03:35:41.215Z,13.30
2022-08-05T03:38:10.950Z,12.82
2022-08-05T03:40:48.462Z,12.23
2022-08-05T03:44:09.948Z,14.85
2022-08-05T03:46:04.611Z,12.88
2022-08-05T03:48:35.348Z,10.65
2022-08-05T03:52:38.671Z,11.65
2022-08-05T03:55:50.693Z,16.83
2022-08-05T03:57:16.417Z,13.02
2022-08-05T03:59:54.738Z,11.45
2022-08-05T04:02:37.684Z,11.50
2022-08-05T04:05:09.687Z,10.50
2022-08-05T04:07:58.080Z,14.27
2022-08-05T04:10:30.946Z,10.23
2022-08-05T04:13:00.439Z,16.55
2022-08-05T04:15:32.957Z,10.77
2022-08-05T04:18:06.747Z,12.80
2022-08-05T04:20:34.540Z,10.27
2022-08-05T04:23:01.336Z,10.75
2022-08-05T04:25:56.562Z,12.95
2022-08-05T04:28:14.486Z,14.45
2022-08-05T04:30:41.637Z,12.23
2022-08-05T04:33:09.542Z,14.23
2022-08-05T04:36:15.889Z,17.13
2022-08-05T04:38:22.636Z,13.35
2022-08-05T04:41:07.341Z,13.05
2022-08-05T04:43:36.042Z,14.15
2022-08-05T04:46:05.428Z,16.20
2022-08-05T04:48:32.042Z,13.90
2022-08-05T04:51:03.002Z,14.10
2022-08-05T04:53:33.618Z,21.40
2022-08-05T04:56:33.903Z,17.23
2022-08-05T04:58:49.618Z,19.25
2022-08-05T05:01:50.356Z,15.55
2022-08-05T05:04:04.632Z,17.20
2022-08-05T05:06:39.034Z,18.00
2022-08-05T05:09:14.008Z,18.83
2022-08-05T05:11:55.741Z,17.40
2022-08-05T05:14:31.273Z,15.60
2022-08-05T05:16:59.352Z,16.90
2022-08-05T05:19:26.542Z,16.92
2022-08-05T05:21:55.667Z,17.13
2022-08-05T05:24:22.394Z,15.02
2022-08-05T05:27:08.888Z,17.73
2022-08-05T05:30:03.473Z,19.30
2022-08-05T05:32:23.224Z,17.40
2022-08-05T05:34:52.505Z,20.15
2022-08-05T05:37:19.157Z,16.17
2022-08-05T05:39:45.867Z,15.93
2022-08-05T05:42:12.621Z,17.42
2022-08-05T05:44:42.915Z,18.88
2022-08-05T05:47:13.456Z,15.13
2022-08-05T05:50:01.781Z,20.00
2022-08-05T05:52:37.888Z,18.08
2022-08-05T05:55:13.692Z,17.25
2022-08-05T05:57:51.929Z,19.02
2022-08-05T06:00:21.946Z,19.77
2022-08-05T06:02:58.303Z,19.13
2022-08-05T06:05:25.609Z,16.70
2022-08-05T06:08:01.210Z,15.57
2022-08-05T06:10:29.387Z,17.20
2022-08-05T06:13:01.091Z,19.77
2022-08-05T06:16:28.159Z,23.42
2022-08-05T06:18:14.388Z,19.98
2022-08-05T06:20:42.031Z,23.45
2022-08-05T06:23:14.499Z,24.00
2022-08-05T06:26:13.462Z,20.67
2022-08-05T06:28:28.565Z,22.80
2022-08-05T06:30:55.602Z,26.08
2022-08-05T06:34:04.618Z,28.13
2022-08-05T06:36:10.303Z,25.85
2022-08-05T06:38:37.192Z,25.08
2022-08-05T06:41:05.317Z,24.52
2022-08-05T06:43:57.743Z,27.95
2022-08-05T06:46:21.282Z,31.35
2022-08-05T06:48:56.136Z,29.33
2022-08-05T06:51:29.882Z,25.90
2022-08-05T06:54:02.358Z,27.35
2022-08-05T06:56:29.843Z,28.20
2022-08-05T06:58:56.481Z,28.92
2022-08-05T07:01:27.648Z,28.35
2022-08-05T07:03:59.380Z,28.27
2022-08-05T07:06:27.626Z,26.02
2022-08-05T07:08:55.215Z,22.77
2022-08-05T07:11:22.583Z,25.73
2022-08-05T07:14:20.678Z,24.23
2022-08-05T07:17:58.330Z,26.95
2022-08-05T07:20:32.125Z,27.20
2022-08-05T07:22:37.095Z,29.88
2022-08-05T07:25:55.316Z,29.13
2022-08-05T07:27:57.542Z,26.77
2022-08-05T07:30:32.204Z,26.20
2022-08-05T07:33:01.305Z,27.10
2022-08-05T07:35:55.918Z,33.42
2022-08-05T07:38:32.091Z,32.53
2022-08-05T07:41:16.708Z,41.10
2022-08-05T07:43:49.754Z,43.30
2022-08-05T07:46:25.378Z,40.35
2022-08-05T07:49:04.225Z,47.47
2022-08-05T07:51:37.565Z,42.22
2022-08-05T07:54:15.540Z,43.60
2022-08-05T07:57:13.812Z,47.13
2022-08-05T07:59:38.223Z,45.72
2022-08-05T08:02:15.517Z,46.00
2022-08-05T08:04:43.139Z,44.42
2022-08-05T08:07:12.242Z,52.53
2022-08-05T08:09:38.760Z,44.45
2022-08-05T08:12:15.918Z,50.20
2022-08-05T08:14:53.555Z,47.28
2022-08-05T08:17:21.287Z,54.97
2022-08-05T08:20:21.496Z,52.25
2022-08-05T08:22:35.445Z,54.60
2022-08-05T08:25:03.230Z,57.78
2022-08-05T08:27:35.700Z,63.13
2022-08-05T08:30:27.617Z,63.13
2022-08-05T08:33:04.352Z,64.97
2022-08-05T08:35:34.738Z,59.95
2022-08-05T08:38:01.969Z,67.55
2022-08-05T08:40:29.931Z,63.83
2022-08-05T08:42:58.708Z,65.10
2022-08-05T08:45:46.800Z,64.43
2022-08-05T08:48:36.043Z,57.53
2022-08-05T08:51:22.976Z,54.25
2022-08-05T08:53:50.643Z,52.08
2022-08-05T08:56:19.317Z,46.38
2022-08-05T08:58:49.017Z,49.50
2022-08-05T09:01:19.654Z,44.13
2022-08-05T09:03:55.263Z,40.38
2022-08-05T09:06:24.214Z,40.67
2022-08-05T09:08:57.042Z,38.05
2022-08-05T09:11:53.354Z,38.15
2022-08-05T09:14:56.768Z,33.05
2022-08-05T09:17:00.370Z,32.40
2022-08-05T09:19:27.855Z,36.10
2022-08-05T09:22:22.000Z,36.67
2022-08-05T09:25:01.391Z,31.02
2022-08-05T09:28:04.213Z,32.35
2022-08-05T09:30:23.425Z,30.27
2022-08-05T09:32:51.730Z,24.23
2022-08-05T09:35:26.888Z,27.27
2022-08-05T09:38:16.671Z,28.92
2022-08-05T09:40:52.710Z,24.25
2022-08-05T09:43:40.820Z,28.73
2022-08-05T09:46:32.435Z,29.20
2022-08-05T09:49:07.264Z,31.88
2022-08-05T09:51:48.899Z,28.38
2022-08-05T09:54:21.404Z,25.58
2022-08-05T09:56:56.143Z,28.48
2022-08-05T09:59:28.001Z,35.47
2022-08-05T10:01:58.368Z,32.58
2022-08-05T10:04:36.053Z,39.40
2022-08-05T10:07:20.098Z,38.03
2022-08-05T10:10:14.181Z,41.50
2022-08-05T10:13:02.568Z,40.00
2022-08-05T10:15:41.238Z,38.80
2022-08-05T10:18:10.109Z,33.83
2022-08-05T10:20:47.679Z,35.53
2022-08-05T10:23:34.168Z,33.25
2022-08-05T10:26:14.052Z,31.80
2022-08-05T10:28:44.052Z,34.72
2022-08-05T10:32:49.511Z,34.92
2022-08-05T10:34:03.371Z,31.77
2022-08-05T10:36:30.784Z,34.47
2022-08-05T10:39:10.135Z,34.58
2022-08-05T10:42:00.850Z,36.28
2022-08-05T10:44:29.315Z,38.08
2022-08-05T10:46:56.819Z,33.38
2022-08-05T10:49:26.951Z,28.33
2022-08-05T10:52:02.391Z,29.50
2022-08-05T10:55:01.834Z,27.98
2022-08-05T10:57:29.390Z,27.38
2022-08-05T11:00:19.251Z,28.88
2022-08-05T11:02:59.068Z,29.85
2022-08-05T11:06:05.094Z,30.48
2022-08-05T11:08:38.061Z,30.70
2022-08-05T11:11:44.446Z,32.22
2022-08-05T11:15:01.454Z,29.52
2022-08-05T11:17:58.950Z,29.17
2022-08-05T11:20:34.928Z,30.38
2022-08-05T11:24:02.655Z,30.98
2022-08-05T11:26:28.440Z,32.55
2022-08-05T11:29:11.646Z,28.13
2022-08-05T11:31:56.448Z,35.35
2022-08-05T11:34:38.635Z,26.52
2022-08-05T11:37:06.158Z,24.83
2022-08-05T11:40:00.398Z,22.63
2022-08-05T11:42:37.851Z,21.30
2022-08-05T11:45:14.205Z,18.23
2022-08-05T11:47:55.680Z,17.35
2022-08-05T11:50:22.782Z,11.30
2022-08-05T11:52:52.071Z,9.00
2022-08-05T11:55:21.181Z,6.60
2022-08-05T11:58:09.152Z,8.30
2022-08-05T12:00:38.527Z,6.70
2022-08-05T12:03:29.515Z,5.18
2022-08-05T12:06:10.111Z,7.05
2022-08-05T12:08:49.809Z,5.18
2022-08-05T12:11:24.790Z,6.50
2022-08-05T12:14:06.007Z,5.68
2022-08-05T12:16:45.137Z,5.45
2022-08-05T12:20:27.691Z,3.95
2022-08-05T12:21:58.673Z,3.72
2022-08-05T12:24:27.831Z,4.80
2022-08-05T12:26:54.711Z,4.75
2022-08-05T12:29:23.820Z,6.53
2022-08-05T12:31:55.286Z,7.18
2022-08-05T12:34:28.250Z,5.90
2022-08-05T12:36:57.031Z,9.90
2022-08-05T12:39:34.570Z,12.88
2022-08-05T12:42:18.329Z,7.65
2022-08-05T12:44:47.611Z,4.88
2022-08-05T12:47:28.556Z,11.35
2022-08-05T12:50:04.071Z,4.80
2022-08-05T12:52:41.682Z,4.97
2022-08-05T12:55:28.346Z,8.90
2022-08-05T12:58:50.933Z,6.05
2022-08-05T13:02:03.203Z,7.35
2022-08-05T13:03:41.682Z,4.88
2022-08-05T13:06:19.686Z,4.43
2022-08-05T13:08:51.724Z,5.30
2022-08-05T13:11:57.910Z,6.03
2022-08-05T13:14:19.485Z,6.22
2022-08-05T13:16:57.375Z,4.82
2022-08-05T13:19:51.055Z,9.57
2022-08-05T13:22:14.573Z,6.28
2022-08-05T13:24:57.467Z,5.00
2022-08-05T13:27:38.141Z,8.75
2022-08-05T13:30:35.105Z,8.60
2022-08-05T13:32:57.536Z,5.25
2022-08-05T13:35:42.522Z,6.45
2022-08-05T13:38:28.338Z,4.72
2022-08-05T13:40:58.533Z,6.18
2022-08-05T13:43:45.475Z,3.58
2022-08-05T13:46:12.026Z,6.60
2022-08-05T13:48:58.582Z,5.38
2022-08-05T13:51:40.184Z,3.17
2022-08-05T13:54:12.332Z,4.72
2022-08-05T13:56:50.858Z,4.80
2022-08-05T13:59:24.125Z,3.83
2022-08-05T14:01:57.968Z,6.07
2022-08-05T14:04:49.968Z,7.07
2022-08-05T14:07:25.822Z,5.32
2022-08-05T14:10:14.077Z,4.68
2022-08-05T14:12:48.798Z,4.03
2022-08-05T14:16:06.927Z,3.53
2022-08-05T14:18:05.156Z,4.82
2022-08-05T14:20:31.714Z,6.45
2022-08-05T14:22:59.641Z,4.43
2022-08-05T14:25:28.232Z,4.25
2022-08-05T14:27:58.427Z,6.47
2022-08-05T14:30:26.646Z,3.25
2022-08-05T14:32:54.647Z,6.57
2022-08-05T14:35:23.404Z,5.53
2022-08-05T14:38:04.473Z,4.70
2022-08-05T14:40:31.135Z,7.20
2022-08-05T14:42:57.573Z,5.15
2022-08-05T14:45:24.932Z,4.20
2022-08-05T14:48:05.428Z,5.40
2022-08-05T14:50:39.668Z,5.05
2022-08-05T14:53:06.656Z,6.78
2022-08-05T14:55:39.362Z,6.22
2022-08-05T14:58:10.811Z,6.93
2022-08-05T15:00:38.653Z,5.47
2022-08-05T15:03:06.060Z,4.40
2022-08-05T15:06:12.754Z,6.32
2022-08-05T15:08:58.544Z,4.68
2022-08-05T15:11:09.306Z,7.18
2022-08-05T15:13:46.161Z,4.90
2022-08-05T15:16:13.361Z,8.20
2022-08-05T15:18:40.279Z,5.53
2022-08-05T15:21:08.611Z,4.45
2022-08-05T15:23:35.347Z,10.23
2022-08-05T15:26:04.798Z,6.53
2022-08-05T15:28:31.550Z,5.88
2022-08-05T15:30:58.117Z,10.00
2022-08-05T15:33:56.706Z,10.73
2022-08-05T15:36:17.652Z,5.68
2022-08-05T15:40:41.471Z,8.52
2022-08-05T15:41:56.142Z,5.40
2022-08-05T15:44:25.690Z,4.57
2022-08-05T15:46:54.506Z,5.45
2022-08-05T15:49:40.942Z,5.43
2022-08-05T15:52:29.307Z,7.82
2022-08-05T15:54:55.884Z,6.55
2022-08-05T15:57:23.369Z,6.28
2022-08-05T15:59:54.030Z,5.70
2022-08-05T16:02:27.746Z,6.65
2022-08-05T16:04:55.420Z,5.55
2022-08-05T16:07:22.947Z,7.68
2022-08-05T16:09:49.681Z,8.57
2022-08-05T16:12:17.237Z,5.45
2022-08-05T16:14:46.640Z,5.55
2022-08-05T16:17:13.732Z,6.90
2022-08-05T16:20:04.553Z,9.48
2022-08-05T16:22:27.871Z,5.20
2022-08-05T16:25:01.042Z,6.97
2022-08-05T16:28:00.690Z,8.23
2022-08-05T16:30:26.270Z,5.40
2022-08-05T16:32:58.101Z,9.20
2022-08-05T16:35:28.617Z,7.82
2022-08-05T16:38:16.110Z,4.35
2022-08-05T16:40:55.076Z,5.82
2022-08-05T16:43:31.652Z,6.70
2022-08-05T16:46:03.673Z,7.72
2022-08-05T16:48:35.656Z,6.05
2022-08-05T16:51:08.976Z,4.80
2022-08-05T16:54:03.188Z,5.88
2022-08-05T16:56:23.764Z,6.82
2022-08-05T16:58:50.512Z,11.32
2022-08-05T17:01:17.135Z,6.38
2022-08-05T17:03:45.724Z,9.05
2022-08-05T17:06:12.588Z,6.55
2022-08-05T17:08:52.777Z,6.40
2022-08-05T17:11:25.515Z,8.93
2022-08-05T17:14:00.200Z,8.35
2022-08-05T17:16:36.648Z,4.53
2022-08-05T17:19:09.714Z,8.68
2022-08-05T17:21:39.751Z,4.82
2022-08-05T17:24:27.993Z,7.63
2022-08-05T17:26:56.904Z,6.45
2022-08-05T17:29:33.467Z,7.80
2022-08-05T17:32:11.538Z,8.98
2022-08-05T17:34:43.594Z,4.97
2022-08-05T17:37:36.032Z,8.70
2022-08-05T17:40:00.082Z,10.40
2022-08-05T17:42:30.062Z,5.38
2022-08-05T17:45:00.667Z,6.28
2022-08-05T17:50:22.743Z,5.43
2022-08-05T17:52:54.957Z,5.45
2022-08-05T17:55:22.788Z,6.15
2022-08-05T17:58:02.165Z,4.13
2022-08-05T18:00:29.622Z,6.68
2022-08-05T18:02:56.790Z,6.95
2022-08-05T18:05:23.816Z,4.90
2022-08-05T18:07:54.803Z,3.45
2022-08-05T18:10:24.216Z,4.88
2022-08-05T18:12:51.121Z,3.83
2022-08-05T18:15:17.935Z,5.72
2022-08-05T18:18:01.076Z,5.45
2022-08-05T18:20:32.419Z,7.65
2022-08-05T18:23:09.567Z,8.73
2022-08-05T18:25:41.449Z,3.08
2022-08-05T18:28:16.355Z,5.78
2022-08-05T18:30:50.940Z,6.60
2022-08-05T18:33:22.529Z,5.07
2022-08-05T18:36:05.205Z,3.83
2022-08-05T18:38:38.527Z,3.35
2022-08-05T18:41:55.880Z,5.18
2022-08-05T18:43:53.986Z,3.03
2022-08-05T18:46:20.789Z,4.28
2022-08-05T18:48:52.670Z,7.32
2022-08-05T18:52:05.669Z,2.83
2022-08-05T18:54:31.554Z,6.65
2022-08-05T18:57:01.154Z,5.35
2022-08-05T18:59:42.874Z,6.13
2022-08-05T19:02:27.791Z,3.65
2022-08-05T19:06:05.310Z,2.00
2022-08-05T19:07:52.480Z,6.78
2022-08-05T19:10:28.152Z,3.85
2022-08-05T19:12:55.202Z,2.92
2022-08-05T19:15:56.694Z,6.90
2022-08-05T19:18:13.586Z,2.95
2022-08-05T19:20:51.480Z,1.88
2022-08-05T19:24:03.291Z,3.65
2022-08-05T19:26:04.715Z,2.28
2022-08-05T19:28:35.228Z,2.72
2022-08-05T19:31:05.890Z,5.95
2022-08-05T19:33:36.775Z,2.97
2022-08-05T19:36:06.501Z,4.53
2022-08-05T19:38:35.769Z,1.35
2022-08-05T19:41:07.016Z,2.83
2022-08-05T19:44:06.256Z,4.20
2022-08-05T19:46:29.594Z,3.42
2022-08-05T19:49:01.300Z,1.52
2022-08-05T19:52:05.155Z,1.65
2022-08-05T19:54:29.600Z,3.72
2022-08-05T19:57:06.806Z,3.42
2022-08-05T19:59:56.418Z,1.40
2022-08-05T20:02:23.393Z,3.80
2022-08-05T20:04:50.467Z,4.55
2022-08-05T20:07:47.212Z,2.00
2022-08-05T20:10:13.149Z,2.78
2022-08-05T20:12:46.172Z,1.48
2022-08-05T20:15:47.822Z,3.03
2022-08-05T20:18:10.532Z,2.63
2022-08-05T20:20:55.164Z,6.80
2022-08-05T20:23:39.569Z,1.92
2022-08-05T20:26:16.625Z,1.00
2022-08-05T20:28:53.962Z,1.85
2022-08-05T20:31:36.902Z,3.03
2022-08-05T20:34:11.574Z,1.50
2022-08-05T20:36:43.329Z,2.88
2022-08-05T20:39:12.848Z,2.65
2022-08-05T20:41:44.239Z,2.30
2022-08-05T20:44:29.134Z,2.13
2022-08-05T20:46:58.368Z,2.97
2022-08-05T20:49:25.931Z,2.28
2022-08-05T20:51:54.037Z,2.28
2022-08-05T20:54:22.102Z,4.55
2022-08-05T20:56:49.120Z,2.67
2022-08-05T20:59:26.278Z,3.42
2022-08-05T21:01:56.293Z,2.15
2022-08-05T21:04:26.915Z,3.42
2022-08-05T21:06:54.112Z,1.33
2022-08-05T21:09:20.741Z,1.77
2022-08-05T21:12:09.312Z,3.15
2022-08-05T21:14:34.910Z,3.53
2022-08-05T21:17:05.307Z,2.83
2022-08-05T21:19:47.311Z,2.88
2022-08-05T21:22:18.278Z,2.88
2022-08-05T21:24:49.016Z,1.50
2022-08-05T21:27:18.253Z,4.53
2022-08-05T21:29:48.395Z,1.95
2022-08-05T21:32:23.698Z,2.63
2022-08-05T21:35:06.823Z,3.95
2022-08-05T21:37:41.026Z,2.42
2022-08-05T21:40:13.034Z,1.80
2022-08-05T21:42:43.987Z,2.85
2022-08-05T21:45:12.041Z,1.75
2022-08-05T21:47:56.924Z,3.15
2022-08-05T21:50:28.132Z,2.72
2022-08-05T21:52:58.984Z,1.42
2022-08-05T21:56:00.981Z,2.55
2022-08-05T21:58:19.271Z,2.03
2022-08-05T22:00:51.306Z,5.68
2022-08-05T22:03:18.049Z,2.15
2022-08-05T22:05:48.507Z,1.38
2022-08-05T22:08:22.150Z,2.40
2022-08-05T22:10:53.181Z,1.92
2022-08-05T22:14:06.460Z,2.47
2022-08-05T22:16:20.460Z,2.17
2022-08-05T22:18:53.275Z,2.20
2022-08-05T22:21:19.981Z,2.10
2022-08-05T22:24:09.214Z,3.28
2022-08-05T22:26:58.558Z,5.03
2022-08-05T22:29:30.854Z,5.57
2022-08-05T22:32:03.263Z,4.22
2022-08-05T22:34:31.240Z,2.70
2022-08-05T22:36:58.790Z,2.70
2022-08-05T22:39:31.142Z,3.28
2022-08-05T22:42:10.353Z,1.93
2022-08-05T22:44:38.733Z,1.63
2022-08-05T22:47:05.690Z,1.88
2022-08-05T22:50:20.986Z,2.47
2022-08-05T22:52:30.678Z,3.33
2022-08-05T22:55:00.966Z,4.22
2022-08-05T22:57:27.515Z,3.28
2022-08-05T23:00:05.035Z,2.05
2022-08-05T23:02:35.597Z,4.78
2022-08-05T23:05:12.962Z,4.93
2022-08-05T23:07:48.663Z,5.20
2022-08-05T23:10:19.707Z,1.95
2022-08-05T23:12:51.215Z,3.08
2022-08-05T23:15:18.438Z,3.75
2022-08-05T23:18:00.466Z,3.88
2022-08-05T23:20:29.748Z,2.13
2022-08-05T23:22:56.628Z,3.50
2022-08-05T23:25:51.635Z,2.72
2022-08-05T23:28:12.621Z,2.42
2022-08-05T23:30:43.496Z,2.53
2022-08-05T23:33:16.001Z,5.05
2022-08-05T23:35:45.559Z,3.78
2022-08-05T23:38:12.284Z,2.83
2022-08-05T23:40:40.768Z,2.60
2022-08-05T23:43:11.394Z,2.67
2022-08-05T23:45:52.432Z,4.18
2022-08-05T23:48:19.735Z,3.10
2022-08-05T23:50:47.436Z,1.90
2022-08-05T23:53:22.996Z,2.45
2022-08-05T23:55:49.746Z,2.78
2022-08-05T23:58:31.900Z,3.58
